sensor_id;sensor_type;location;lat;lon;timestamp;pressure;altitude;pressure_sealevel;temperature;humidity
34742;BME280;20968;42.696;23.360;2023-04-06T00:01:38;95020.88;;;2.69;65.36
34742;BME280;20968;42.696;23.360;2023-04-06T00:04:05;95026.53;;;2.75;64.79
34742;BME280;20968;42.696;23.360;2023-04-06T00:06:31;95012.72;;;2.69;65.13
34742;BME280;20968;42.696;23.360;2023-04-06T00:08:57;95016.53;;;2.72;64.57
34742;BME280;20968;42.696;23.360;2023-04-06T00:11:22;95018.72;;;2.77;64.78
34742;BME280;20968;42.696;23.360;2023-04-06T00:13:47;95012.06;;;2.78;64.80
34742;BME280;20968;42.696;23.360;2023-04-06T00:16:13;95005.31;;;2.70;64.34
34742;BME280;20968;42.696;23.360;2023-04-06T00:18:38;95005.44;;;2.79;64.40
34742;BME280;20968;42.696;23.360;2023-04-06T00:21:04;95002.22;;;2.84;65.02
34742;BME280;20968;42.696;23.360;2023-04-06T00:23:29;95005.34;;;2.82;65.06
34742;BME280;20968;42.696;23.360;2023-04-06T00:25:54;95001.44;;;2.83;65.28
34742;BME280;20968;42.696;23.360;2023-04-06T00:28:20;95000.03;;;2.91;65.13
34742;BME280;20968;42.696;23.360;2023-04-06T00:30:50;94994.94;;;2.93;64.69
34742;BME280;20968;42.696;23.360;2023-04-06T00:33:17;94996.88;;;2.93;64.72
34742;BME280;20968;42.696;23.360;2023-04-06T00:35:42;94996.47;;;2.94;64.88
34742;BME280;20968;42.696;23.360;2023-04-06T00:38:08;94996.13;;;2.92;64.46
34742;BME280;20968;42.696;23.360;2023-04-06T00:40:33;94990.34;;;2.90;64.81
34742;BME280;20968;42.696;23.360;2023-04-06T00:42:59;94991.97;;;2.88;64.53
34742;BME280;20968;42.696;23.360;2023-04-06T00:45:25;94992.66;;;2.92;64.25
34742;BME280;20968;42.696;23.360;2023-04-06T00:47:50;94988.38;;;2.78;63.65
34742;BME280;20968;42.696;23.360;2023-04-06T00:50:16;94993.63;;;2.85;63.83
34742;BME280;20968;42.696;23.360;2023-04-06T00:52:43;94985.78;;;2.87;63.66
34742;BME280;20968;42.696;23.360;2023-04-06T00:55:08;94981.09;;;2.88;64.14
34742;BME280;20968;42.696;23.360;2023-04-06T00:57:34;94986.34;;;2.95;63.39
34742;BME280;20968;42.696;23.360;2023-04-06T00:59:59;94985.78;;;2.87;63.24
34742;BME280;20968;42.696;23.360;2023-04-06T01:02:25;94981.78;;;2.92;63.06
34742;BME280;20968;42.696;23.360;2023-04-06T01:04:53;94979.94;;;3.01;62.75
34742;BME280;20968;42.696;23.360;2023-04-06T01:07:19;94978.41;;;3.00;63.01
34742;BME280;20968;42.696;23.360;2023-04-06T01:09:44;94978.84;;;2.99;62.61
34742;BME280;20968;42.696;23.360;2023-04-06T01:12:10;94973.06;;;2.97;62.67
34742;BME280;20968;42.696;23.360;2023-04-06T01:14:35;94977.75;;;2.96;62.64
34742;BME280;20968;42.696;23.360;2023-04-06T01:17:00;94972.31;;;2.96;62.79
34742;BME280;20968;42.696;23.360;2023-04-06T01:19:26;94974.59;;;2.98;62.21
34742;BME280;20968;42.696;23.360;2023-04-06T01:21:52;94977.94;;;2.89;63.02
34742;BME280;20968;42.696;23.360;2023-04-06T01:24:18;94972.72;;;2.82;63.00
34742;BME280;20968;42.696;23.360;2023-04-06T01:26:44;94964.25;;;2.80;63.40
34742;BME280;20968;42.696;23.360;2023-04-06T01:29:09;94961.84;;;2.82;63.31
34742;BME280;20968;42.696;23.360;2023-04-06T01:31:35;94961.22;;;2.78;63.72
34742;BME280;20968;42.696;23.360;2023-04-06T01:34:00;94958.81;;;2.80;64.01
34742;BME280;20968;42.696;23.360;2023-04-06T01:36:25;94951.88;;;2.79;63.83
34742;BME280;20968;42.696;23.360;2023-04-06T01:38:51;94937.72;;;2.72;64.13
34742;BME280;20968;42.696;23.360;2023-04-06T01:41:16;94957.41;;;2.76;63.72
34742;BME280;20968;42.696;23.360;2023-04-06T01:43:42;94946.06;;;2.65;64.03
34742;BME280;20968;42.696;23.360;2023-04-06T01:46:08;94950.66;;;2.68;64.51
34742;BME280;20968;42.696;23.360;2023-04-06T01:48:33;94944.44;;;2.67;64.67
34742;BME280;20968;42.696;23.360;2023-04-06T01:50:59;94948.34;;;2.66;64.24
34742;BME280;20968;42.696;23.360;2023-04-06T01:53:24;94941.59;;;2.58;65.30
34742;BME280;20968;42.696;23.360;2023-04-06T01:55:49;94939.75;;;2.55;65.75
34742;BME280;20968;42.696;23.360;2023-04-06T01:58:15;94936.47;;;2.48;65.07
34742;BME280;20968;42.696;23.360;2023-04-06T02:00:41;94934.19;;;2.46;65.83
34742;BME280;20968;42.696;23.360;2023-04-06T02:03:06;94936.72;;;2.53;66.25
34742;BME280;20968;42.696;23.360;2023-04-06T02:05:32;94925.63;;;2.48;66.07
34742;BME280;20968;42.696;23.360;2023-04-06T02:08:02;94925.81;;;2.41;65.84
34742;BME280;20968;42.696;23.360;2023-04-06T02:10:28;94930.41;;;2.44;66.22
34742;BME280;20968;42.696;23.360;2023-04-06T02:12:53;94935.94;;;2.40;66.51
34742;BME280;20968;42.696;23.360;2023-04-06T02:15:18;94931.25;;;2.41;66.48
34742;BME280;20968;42.696;23.360;2023-04-06T02:17:44;94934.50;;;2.36;66.28
34742;BME280;20968;42.696;23.360;2023-04-06T02:20:10;94935.50;;;2.42;65.73
34742;BME280;20968;42.696;23.360;2023-04-06T02:22:36;94927.03;;;2.52;65.65
34742;BME280;20968;42.696;23.360;2023-04-06T02:25:01;94926.53;;;2.57;65.75
34742;BME280;20968;42.696;23.360;2023-04-06T02:27:34;94932.50;;;2.65;65.37
34742;BME280;20968;42.696;23.360;2023-04-06T02:30:01;94934.47;;;2.64;65.30
34742;BME280;20968;42.696;23.360;2023-04-06T02:32:26;94939.34;;;2.69;65.67
34742;BME280;20968;42.696;23.360;2023-04-06T02:34:52;94944.78;;;2.69;65.47
34742;BME280;20968;42.696;23.360;2023-04-06T02:37:17;94922.78;;;2.51;66.06
34742;BME280;20968;42.696;23.360;2023-04-06T02:39:42;94938.69;;;2.53;66.43
34742;BME280;20968;42.696;23.360;2023-04-06T02:42:07;94931.50;;;2.59;66.64
34742;BME280;20968;42.696;23.360;2023-04-06T02:44:33;94929.34;;;2.54;66.85
34742;BME280;20968;42.696;23.360;2023-04-06T02:46:59;94932.38;;;2.56;66.62
34742;BME280;20968;42.696;23.360;2023-04-06T02:49:24;94928.34;;;2.60;66.52
34742;BME280;20968;42.696;23.360;2023-04-06T02:51:50;94931.31;;;2.66;66.61
34742;BME280;20968;42.696;23.360;2023-04-06T02:54:15;94940.97;;;2.67;66.07
34742;BME280;20968;42.696;23.360;2023-04-06T02:56:40;94930.22;;;2.63;66.41
34742;BME280;20968;42.696;23.360;2023-04-06T02:59:05;94924.44;;;2.61;65.97
34742;BME280;20968;42.696;23.360;2023-04-06T03:01:31;94925.22;;;2.62;65.44
34742;BME280;20968;42.696;23.360;2023-04-06T03:03:56;94927.28;;;2.58;64.92
34742;BME280;20968;42.696;23.360;2023-04-06T03:06:22;94935.53;;;2.67;64.80
34742;BME280;20968;42.696;23.360;2023-04-06T03:08:48;94926.72;;;2.63;63.76
34742;BME280;20968;42.696;23.360;2023-04-06T03:11:14;94928.13;;;2.67;64.05
34742;BME280;20968;42.696;23.360;2023-04-06T03:13:39;94930.97;;;2.64;63.67
34742;BME280;20968;42.696;23.360;2023-04-06T03:16:05;94927.94;;;2.62;64.42
34742;BME280;20968;42.696;23.360;2023-04-06T03:18:31;94929.56;;;2.72;63.92
34742;BME280;20968;42.696;23.360;2023-04-06T03:20:57;94923.91;;;2.79;63.02
34742;BME280;20968;42.696;23.360;2023-04-06T03:23:22;94933.59;;;2.80;63.67
34742;BME280;20968;42.696;23.360;2023-04-06T03:25:48;94928.16;;;2.80;62.80
34742;BME280;20968;42.696;23.360;2023-04-06T03:28:13;94931.22;;;2.82;63.96
34742;BME280;20968;42.696;23.360;2023-04-06T03:30:38;94935.56;;;2.79;64.19
34742;BME280;20968;42.696;23.360;2023-04-06T03:33:04;94924.47;;;2.74;65.04
34742;BME280;20968;42.696;23.360;2023-04-06T03:35:29;94917.50;;;2.73;64.58
34742;BME280;20968;42.696;23.360;2023-04-06T03:37:55;94922.19;;;2.72;64.86
34742;BME280;20968;42.696;23.360;2023-04-06T03:40:20;94927.19;;;2.74;64.77
34742;BME280;20968;42.696;23.360;2023-04-06T03:42:45;94918.16;;;2.64;64.75
34742;BME280;20968;42.696;23.360;2023-04-06T03:45:11;94918.56;;;2.63;65.17
34742;BME280;20968;42.696;23.360;2023-04-06T03:47:38;94921.19;;;2.66;65.27
34742;BME280;20968;42.696;23.360;2023-04-06T03:50:03;94916.31;;;2.74;64.75
34742;BME280;20968;42.696;23.360;2023-04-06T03:52:28;94922.50;;;2.74;64.60
34742;BME280;20968;42.696;23.360;2023-04-06T03:54:54;94921.00;;;2.73;64.73
34742;BME280;20968;42.696;23.360;2023-04-06T03:57:19;94922.06;;;2.76;65.38
34742;BME280;20968;42.696;23.360;2023-04-06T03:59:44;94922.81;;;2.76;65.54
34742;BME280;20968;42.696;23.360;2023-04-06T04:02:10;94927.63;;;2.72;66.42
34742;BME280;20968;42.696;23.360;2023-04-06T04:04:35;94931.19;;;2.69;66.67
34742;BME280;20968;42.696;23.360;2023-04-06T04:07:00;94926.41;;;2.61;67.12
34742;BME280;20968;42.696;23.360;2023-04-06T04:09:25;94920.31;;;2.69;66.82
34742;BME280;20968;42.696;23.360;2023-04-06T04:11:51;94926.31;;;2.64;67.40
34742;BME280;20968;42.696;23.360;2023-04-06T04:14:16;94909.91;;;2.80;70.16
34742;BME280;20968;42.696;23.360;2023-04-06T04:16:41;94927.38;;;3.29;70.03
34742;BME280;20968;42.696;23.360;2023-04-06T04:19:07;94926.16;;;3.42;67.47
34742;BME280;20968;42.696;23.360;2023-04-06T04:21:32;94917.00;;;3.83;70.10
34742;BME280;20968;42.696;23.360;2023-04-06T04:23:58;94922.00;;;3.50;63.77
34742;BME280;20968;42.696;23.360;2023-04-06T04:26:23;94920.28;;;3.31;64.33
34742;BME280;20968;42.696;23.360;2023-04-06T04:28:48;94917.38;;;3.26;63.97
34742;BME280;20968;42.696;23.360;2023-04-06T04:31:13;94921.31;;;3.12;64.39
34742;BME280;20968;42.696;23.360;2023-04-06T04:33:39;94919.44;;;3.09;64.01
34742;BME280;20968;42.696;23.360;2023-04-06T04:36:04;94926.41;;;2.98;64.10
34742;BME280;20968;42.696;23.360;2023-04-06T04:38:30;94925.44;;;2.92;64.16
34742;BME280;20968;42.696;23.360;2023-04-06T04:40:55;94911.22;;;2.88;64.06
34742;BME280;20968;42.696;23.360;2023-04-06T04:43:21;94931.75;;;2.89;63.96
34742;BME280;20968;42.696;23.360;2023-04-06T04:45:46;94933.38;;;2.99;63.44
34742;BME280;20968;42.696;23.360;2023-04-06T04:48:11;94935.34;;;2.99;63.35
34742;BME280;20968;42.696;23.360;2023-04-06T04:50:36;94924.66;;;3.04;63.09
34742;BME280;20968;42.696;23.360;2023-04-06T04:53:02;94925.00;;;3.06;63.98
34742;BME280;20968;42.696;23.360;2023-04-06T04:55:30;94925.22;;;3.11;64.86
34742;BME280;20968;42.696;23.360;2023-04-06T04:57:56;94926.19;;;3.17;65.16
34742;BME280;20968;42.696;23.360;2023-04-06T05:00:21;94931.41;;;3.12;65.52
34742;BME280;20968;42.696;23.360;2023-04-06T05:02:47;94921.09;;;2.95;66.22
34742;BME280;20968;42.696;23.360;2023-04-06T05:05:12;94922.16;;;3.09;65.85
34742;BME280;20968;42.696;23.360;2023-04-06T05:07:37;94925.44;;;3.05;64.92
34742;BME280;20968;42.696;23.360;2023-04-06T05:10:03;94926.09;;;3.08;65.10
34742;BME280;20968;42.696;23.360;2023-04-06T05:12:28;94919.56;;;3.06;65.52
34742;BME280;20968;42.696;23.360;2023-04-06T05:14:54;94926.41;;;3.10;64.95
34742;BME280;20968;42.696;23.360;2023-04-06T05:17:19;94926.31;;;3.02;65.67
34742;BME280;20968;42.696;23.360;2023-04-06T05:19:45;94922.50;;;2.99;64.98
34742;BME280;20968;42.696;23.360;2023-04-06T05:22:10;94929.25;;;2.95;65.05
34742;BME280;20968;42.696;23.360;2023-04-06T05:24:36;94928.91;;;2.93;64.97
34742;BME280;20968;42.696;23.360;2023-04-06T05:27:01;94929.69;;;2.93;64.83
34742;BME280;20968;42.696;23.360;2023-04-06T05:29:26;94932.06;;;2.91;65.16
34742;BME280;20968;42.696;23.360;2023-04-06T05:31:52;94930.44;;;2.94;64.96
34742;BME280;20968;42.696;23.360;2023-04-06T05:34:17;94934.91;;;3.00;64.92
34742;BME280;20968;42.696;23.360;2023-04-06T05:36:42;94924.88;;;2.97;65.25
34742;BME280;20968;42.696;23.360;2023-04-06T05:39:08;94930.66;;;2.99;65.45
34742;BME280;20968;42.696;23.360;2023-04-06T05:41:36;94932.84;;;2.92;64.90
34742;BME280;20968;42.696;23.360;2023-04-06T05:44:01;94924.69;;;2.79;65.60
34742;BME280;20968;42.696;23.360;2023-04-06T05:46:27;94931.31;;;2.78;65.64
34742;BME280;20968;42.696;23.360;2023-04-06T05:48:52;94923.38;;;2.84;65.63
34742;BME280;20968;42.696;23.360;2023-04-06T05:51:17;94923.69;;;2.86;66.15
34742;BME280;20968;42.696;23.360;2023-04-06T05:53:43;94920.13;;;2.89;65.88
34742;BME280;20968;42.696;23.360;2023-04-06T05:56:08;94926.75;;;2.88;66.24
34742;BME280;20968;42.696;23.360;2023-04-06T05:58:33;94930.03;;;2.95;65.82
34742;BME280;20968;42.696;23.360;2023-04-06T06:00:59;94920.56;;;3.00;65.45
34742;BME280;20968;42.696;23.360;2023-04-06T06:03:25;94922.06;;;3.01;65.82
34742;BME280;20968;42.696;23.360;2023-04-06T06:05:50;94917.41;;;3.01;66.44
34742;BME280;20968;42.696;23.360;2023-04-06T06:08:15;94914.91;;;3.07;66.35
34742;BME280;20968;42.696;23.360;2023-04-06T06:10:41;94924.38;;;3.02;65.97
34742;BME280;20968;42.696;23.360;2023-04-06T06:13:06;94917.97;;;2.96;66.24
34742;BME280;20968;42.696;23.360;2023-04-06T06:15:32;94917.63;;;2.94;66.17
34742;BME280;20968;42.696;23.360;2023-04-06T06:17:57;94915.97;;;2.97;66.34
34742;BME280;20968;42.696;23.360;2023-04-06T06:20:22;94920.00;;;2.92;66.35
34742;BME280;20968;42.696;23.360;2023-04-06T06:22:48;94919.38;;;2.88;66.03
34742;BME280;20968;42.696;23.360;2023-04-06T06:25:13;94911.09;;;2.92;65.87
34742;BME280;20968;42.696;23.360;2023-04-06T06:27:38;94923.28;;;2.87;66.00
34742;BME280;20968;42.696;23.360;2023-04-06T06:30:04;94909.34;;;2.85;65.52
34742;BME280;20968;42.696;23.360;2023-04-06T06:32:30;94910.22;;;2.95;65.99
34742;BME280;20968;42.696;23.360;2023-04-06T06:34:55;94916.84;;;3.06;65.96
34742;BME280;20968;42.696;23.360;2023-04-06T06:37:20;94911.84;;;3.17;65.75
34742;BME280;20968;42.696;23.360;2023-04-06T06:39:46;94917.59;;;3.19;65.25
34742;BME280;20968;42.696;23.360;2023-04-06T06:42:11;94922.72;;;3.17;65.30
34742;BME280;20968;42.696;23.360;2023-04-06T06:44:36;94906.72;;;3.19;64.82
34742;BME280;20968;42.696;23.360;2023-04-06T06:47:02;94916.50;;;3.16;65.29
34742;BME280;20968;42.696;23.360;2023-04-06T06:49:27;94916.94;;;3.27;64.69
34742;BME280;20968;42.696;23.360;2023-04-06T06:51:52;94925.75;;;3.19;64.91
34742;BME280;20968;42.696;23.360;2023-04-06T06:54:18;94922.25;;;3.31;65.35
34742;BME280;20968;42.696;23.360;2023-04-06T06:56:43;94922.16;;;3.34;65.49
34742;BME280;20968;42.696;23.360;2023-04-06T06:59:08;94925.25;;;3.58;66.30
34742;BME280;20968;42.696;23.360;2023-04-06T07:01:36;94923.63;;;3.60;65.23
34742;BME280;20968;42.696;23.360;2023-04-06T07:04:01;94923.31;;;3.46;64.66
34742;BME280;20968;42.696;23.360;2023-04-06T07:06:27;94929.22;;;3.32;64.00
34742;BME280;20968;42.696;23.360;2023-04-06T07:08:52;94924.31;;;3.27;64.83
34742;BME280;20968;42.696;23.360;2023-04-06T07:11:17;94913.25;;;3.21;64.69
34742;BME280;20968;42.696;23.360;2023-04-06T07:13:43;94920.00;;;3.29;64.16
34742;BME280;20968;42.696;23.360;2023-04-06T07:16:09;94921.06;;;3.44;64.34
34742;BME280;20968;42.696;23.360;2023-04-06T07:18:34;94926.69;;;3.50;64.82
34742;BME280;20968;42.696;23.360;2023-04-06T07:21:02;94920.28;;;3.44;63.82
34742;BME280;20968;42.696;23.360;2023-04-06T07:23:27;94922.09;;;3.59;64.35
34742;BME280;20968;42.696;23.360;2023-04-06T07:25:53;94920.84;;;3.73;64.38
34742;BME280;20968;42.696;23.360;2023-04-06T07:28:19;94905.88;;;3.89;64.27
34742;BME280;20968;42.696;23.360;2023-04-06T07:30:50;94920.97;;;4.03;62.51
34742;BME280;20968;42.696;23.360;2023-04-06T07:33:16;94917.88;;;4.13;61.77
34742;BME280;20968;42.696;23.360;2023-04-06T07:35:42;94908.31;;;4.09;61.96
34742;BME280;20968;42.696;23.360;2023-04-06T07:38:10;94921.16;;;4.08;61.75
34742;BME280;20968;42.696;23.360;2023-04-06T07:40:37;94909.38;;;4.11;60.96
34742;BME280;20968;42.696;23.360;2023-04-06T07:43:03;94915.84;;;4.05;61.02
34742;BME280;20968;42.696;23.360;2023-04-06T07:45:29;94916.41;;;4.00;61.42
34742;BME280;20968;42.696;23.360;2023-04-06T07:47:55;94905.13;;;4.10;62.73
34742;BME280;20968;42.696;23.360;2023-04-06T07:50:20;94903.94;;;4.33;61.27
34742;BME280;20968;42.696;23.360;2023-04-06T07:52:45;94896.81;;;4.35;60.56
34742;BME280;20968;42.696;23.360;2023-04-06T07:55:11;94905.44;;;4.55;60.79
34742;BME280;20968;42.696;23.360;2023-04-06T07:57:36;94903.38;;;4.68;60.34
34742;BME280;20968;42.696;23.360;2023-04-06T08:00:02;94908.75;;;4.80;60.20
34742;BME280;20968;42.696;23.360;2023-04-06T08:02:28;94895.19;;;4.98;59.40
34742;BME280;20968;42.696;23.360;2023-04-06T08:04:54;94905.72;;;5.18;59.28
34742;BME280;20968;42.696;23.360;2023-04-06T08:07:21;94906.72;;;5.02;58.51
34742;BME280;20968;42.696;23.360;2023-04-06T08:09:46;94914.50;;;4.82;59.11
34742;BME280;20968;42.696;23.360;2023-04-06T08:12:12;94900.72;;;4.77;59.38
34742;BME280;20968;42.696;23.360;2023-04-06T08:14:38;94920.19;;;4.97;58.11
34742;BME280;20968;42.696;23.360;2023-04-06T08:17:03;94907.34;;;5.06;58.02
34742;BME280;20968;42.696;23.360;2023-04-06T08:19:30;94906.94;;;5.26;57.93
34742;BME280;20968;42.696;23.360;2023-04-06T08:21:55;94918.50;;;5.30;56.48
34742;BME280;20968;42.696;23.360;2023-04-06T08:24:21;94914.88;;;4.93;56.02
34742;BME280;20968;42.696;23.360;2023-04-06T08:26:46;94919.50;;;5.14;55.88
34742;BME280;20968;42.696;23.360;2023-04-06T08:29:12;94920.94;;;5.37;55.96
34742;BME280;20968;42.696;23.360;2023-04-06T08:31:41;94904.56;;;5.37;55.34
34742;BME280;20968;42.696;23.360;2023-04-06T08:34:06;94918.66;;;5.44;56.04
34742;BME280;20968;42.696;23.360;2023-04-06T08:36:32;94916.72;;;5.44;55.60
34742;BME280;20968;42.696;23.360;2023-04-06T08:38:58;94919.78;;;5.64;54.94
34742;BME280;20968;42.696;23.360;2023-04-06T08:41:23;94903.91;;;5.90;54.63
34742;BME280;20968;42.696;23.360;2023-04-06T08:43:58;94906.94;;;5.83;54.48
34742;BME280;20968;42.696;23.360;2023-04-06T08:46:24;94905.44;;;6.00;54.56
34742;BME280;20968;42.696;23.360;2023-04-06T08:48:59;94920.16;;;6.11;54.66
34742;BME280;20968;42.696;23.360;2023-04-06T08:51:25;94916.84;;;5.98;55.05
34742;BME280;20968;42.696;23.360;2023-04-06T08:53:52;94920.44;;;5.86;54.28
34742;BME280;20968;42.696;23.360;2023-04-06T08:56:19;94911.97;;;5.93;54.14
34742;BME280;20968;42.696;23.360;2023-04-06T08:58:46;94916.38;;;5.91;53.40
34742;BME280;20968;42.696;23.360;2023-04-06T09:01:12;94907.56;;;5.78;55.02
34742;BME280;20968;42.696;23.360;2023-04-06T09:03:39;94922.59;;;5.82;53.67
34742;BME280;20968;42.696;23.360;2023-04-06T09:06:12;94912.56;;;5.88;54.46
34742;BME280;20968;42.696;23.360;2023-04-06T09:08:44;94911.66;;;6.09;54.10
34742;BME280;20968;42.696;23.360;2023-04-06T09:14:41;94918.34;;;5.99;53.71
34742;BME280;20968;42.696;23.360;2023-04-06T09:17:31;94908.63;;;6.25;53.29
34742;BME280;20968;42.696;23.360;2023-04-06T09:19:59;94903.16;;;6.25;53.47
34742;BME280;20968;42.696;23.360;2023-04-06T09:22:34;94913.03;;;6.22;52.16
34742;BME280;20968;42.696;23.360;2023-04-06T09:25:00;94902.56;;;6.21;52.55
34742;BME280;20968;42.696;23.360;2023-04-06T09:27:35;94906.03;;;6.13;52.63
34742;BME280;20968;42.696;23.360;2023-04-06T09:30:04;94912.88;;;6.35;52.96
34742;BME280;20968;42.696;23.360;2023-04-06T09:32:30;94913.44;;;6.66;52.05
34742;BME280;20968;42.696;23.360;2023-04-06T09:35:05;94896.47;;;6.53;52.27
34742;BME280;20968;42.696;23.360;2023-04-06T09:37:30;94898.25;;;6.65;52.13
34742;BME280;20968;42.696;23.360;2023-04-06T09:40:02;94910.88;;;6.62;50.77
34742;BME280;20968;42.696;23.360;2023-04-06T09:42:27;94895.75;;;6.85;51.11
34742;BME280;20968;42.696;23.360;2023-04-06T09:44:53;94906.25;;;6.86;49.97
34742;BME280;20968;42.696;23.360;2023-04-06T09:47:18;94908.22;;;6.77;51.65
34742;BME280;20968;42.696;23.360;2023-04-06T09:49:47;94908.22;;;6.86;51.45
34742;BME280;20968;42.696;23.360;2023-04-06T09:52:16;94903.00;;;7.05;50.52
34742;BME280;20968;42.696;23.360;2023-04-06T09:54:43;94903.84;;;6.79;51.52
34742;BME280;20968;42.696;23.360;2023-04-06T10:00:26;94903.88;;;7.11;50.08
34742;BME280;20968;42.696;23.360;2023-04-06T10:02:56;94909.69;;;7.04;50.85
34742;BME280;20968;42.696;23.360;2023-04-06T10:08:08;94899.66;;;7.01;50.03
34742;BME280;20968;42.696;23.360;2023-04-06T10:10:35;94912.75;;;6.97;50.25
34742;BME280;20968;42.696;23.360;2023-04-06T10:13:01;94903.91;;;7.02;50.46
34742;BME280;20968;42.696;23.360;2023-04-06T10:15:30;94898.91;;;7.01;50.84
34742;BME280;20968;42.696;23.360;2023-04-06T10:17:59;94900.84;;;7.09;50.44
34742;BME280;20968;42.696;23.360;2023-04-06T10:23:02;94891.44;;;7.01;49.49
34742;BME280;20968;42.696;23.360;2023-04-06T10:25:32;94904.88;;;6.91;49.80
34742;BME280;20968;42.696;23.360;2023-04-06T10:28:01;94890.00;;;6.83;50.88
34742;BME280;20968;42.696;23.360;2023-04-06T10:30:29;94882.38;;;6.87;50.83
34742;BME280;20968;42.696;23.360;2023-04-06T10:32:59;94881.72;;;7.00;50.91
34742;BME280;20968;42.696;23.360;2023-04-06T10:35:24;94886.94;;;7.22;50.13
34742;BME280;20968;42.696;23.360;2023-04-06T10:38:02;94885.78;;;7.05;50.17
34742;BME280;20968;42.696;23.360;2023-04-06T10:40:27;94883.53;;;7.36;48.72
34742;BME280;20968;42.696;23.360;2023-04-06T10:42:53;94876.31;;;7.47;48.66
34742;BME280;20968;42.696;23.360;2023-04-06T10:45:25;94881.41;;;7.63;48.49
34742;BME280;20968;42.696;23.360;2023-04-06T10:47:52;94877.66;;;7.75;49.16
34742;BME280;20968;42.696;23.360;2023-04-06T10:50:19;94894.00;;;7.70;49.33
34742;BME280;20968;42.696;23.360;2023-04-06T10:52:44;94893.41;;;7.89;48.00
34742;BME280;20968;42.696;23.360;2023-04-06T10:55:11;94887.13;;;7.74;47.41
34742;BME280;20968;42.696;23.360;2023-04-06T10:57:37;94887.75;;;7.69;48.38
34742;BME280;20968;42.696;23.360;2023-04-06T11:00:05;94891.47;;;7.57;47.74
34742;BME280;20968;42.696;23.360;2023-04-06T11:02:31;94882.41;;;7.51;47.65
34742;BME280;20968;42.696;23.360;2023-04-06T11:04:57;94882.63;;;7.85;46.94
34742;BME280;20968;42.696;23.360;2023-04-06T11:07:26;94878.59;;;7.72;47.63
34742;BME280;20968;42.696;23.360;2023-04-06T11:09:52;94869.03;;;7.68;47.19
34742;BME280;20968;42.696;23.360;2023-04-06T11:12:21;94864.03;;;7.66;48.90
34742;BME280;20968;42.696;23.360;2023-04-06T11:14:56;94878.72;;;7.77;47.17
34742;BME280;20968;42.696;23.360;2023-04-06T11:17:27;94874.59;;;7.82;47.59
34742;BME280;20968;42.696;23.360;2023-04-06T11:19:55;94871.44;;;7.74;48.07
34742;BME280;20968;42.696;23.360;2023-04-06T11:22:20;94862.88;;;7.58;48.33
34742;BME280;20968;42.696;23.360;2023-04-06T11:24:45;94860.56;;;7.57;48.84
34742;BME280;20968;42.696;23.360;2023-04-06T11:27:11;94858.97;;;7.50;48.00
34742;BME280;20968;42.696;23.360;2023-04-06T11:29:36;94863.50;;;7.53;48.06
34742;BME280;20968;42.696;23.360;2023-04-06T11:32:06;94863.75;;;7.64;48.72
34742;BME280;20968;42.696;23.360;2023-04-06T11:34:39;94849.75;;;7.62;47.22
34742;BME280;20968;42.696;23.360;2023-04-06T11:37:09;94861.13;;;7.70;48.42
34742;BME280;20968;42.696;23.360;2023-04-06T11:39:39;94856.97;;;7.74;48.10
34742;BME280;20968;42.696;23.360;2023-04-06T11:42:05;94845.44;;;7.70;48.62
34742;BME280;20968;42.696;23.360;2023-04-06T11:44:43;94856.31;;;7.79;48.35
34742;BME280;20968;42.696;23.360;2023-04-06T11:47:13;94856.50;;;7.52;48.25
34742;BME280;20968;42.696;23.360;2023-04-06T11:49:39;94855.63;;;7.46;48.33
34742;BME280;20968;42.696;23.360;2023-04-06T11:52:24;94845.97;;;7.36;48.34
34742;BME280;20968;42.696;23.360;2023-04-06T11:54:50;94842.94;;;7.34;48.29
34742;BME280;20968;42.696;23.360;2023-04-06T11:57:16;94841.53;;;7.39;48.45
34742;BME280;20968;42.696;23.360;2023-04-06T11:59:42;94832.50;;;7.47;48.64
34742;BME280;20968;42.696;23.360;2023-04-06T12:02:07;94833.25;;;7.71;49.38
34742;BME280;20968;42.696;23.360;2023-04-06T12:04:32;94842.81;;;7.75;48.34
34742;BME280;20968;42.696;23.360;2023-04-06T12:06:58;94838.41;;;7.55;48.46
34742;BME280;20968;42.696;23.360;2023-04-06T12:09:23;94842.69;;;7.47;47.82
34742;BME280;20968;42.696;23.360;2023-04-06T12:11:49;94838.66;;;7.33;48.70
34742;BME280;20968;42.696;23.360;2023-04-06T12:14:14;94835.22;;;7.24;49.48
34742;BME280;20968;42.696;23.360;2023-04-06T12:16:40;94832.75;;;7.26;48.95
34742;BME280;20968;42.696;23.360;2023-04-06T12:19:05;94830.44;;;7.10;48.94
34742;BME280;20968;42.696;23.360;2023-04-06T12:21:31;94827.81;;;7.15;48.59
34742;BME280;20968;42.696;23.360;2023-04-06T12:23:59;94831.09;;;6.96;49.37
34742;BME280;20968;42.696;23.360;2023-04-06T12:26:45;94828.50;;;7.01;49.17
34742;BME280;20968;42.696;23.360;2023-04-06T12:29:11;94826.41;;;7.20;49.16
34742;BME280;20968;42.696;23.360;2023-04-06T12:31:50;94835.84;;;7.19;48.10
34742;BME280;20968;42.696;23.360;2023-04-06T12:34:19;94832.41;;;7.09;47.72
34742;BME280;20968;42.696;23.360;2023-04-06T12:36:45;94829.66;;;7.09;48.67
34742;BME280;20968;42.696;23.360;2023-04-06T12:39:10;94822.63;;;7.17;47.91
34742;BME280;20968;42.696;23.360;2023-04-06T12:41:36;94822.06;;;7.13;47.84
34742;BME280;20968;42.696;23.360;2023-04-06T12:44:02;94819.31;;;7.13;48.73
34742;BME280;20968;42.696;23.360;2023-04-06T12:46:27;94812.44;;;7.18;48.10
34742;BME280;20968;42.696;23.360;2023-04-06T12:48:55;94816.28;;;7.11;47.12
34742;BME280;20968;42.696;23.360;2023-04-06T12:51:23;94807.03;;;7.09;47.67
34742;BME280;20968;42.696;23.360;2023-04-06T12:53:48;94805.63;;;7.13;48.27
34742;BME280;20968;42.696;23.360;2023-04-06T12:56:14;94819.03;;;7.35;47.93
34742;BME280;20968;42.696;23.360;2023-04-06T12:58:40;94814.03;;;7.33;47.79
34742;BME280;20968;42.696;23.360;2023-04-06T13:01:08;94814.59;;;7.37;47.62
34742;BME280;20968;42.696;23.360;2023-04-06T13:03:34;94802.72;;;7.40;47.25
34742;BME280;20968;42.696;23.360;2023-04-06T13:06:00;94802.00;;;7.54;47.68
34742;BME280;20968;42.696;23.360;2023-04-06T13:08:25;94800.53;;;7.68;47.61